createdAt,value
2023-03-22T00:02:21.087Z,9.39
2023-03-22T00:04:48.367Z,9.41
2023-03-22T00:07:15.348Z,9.43
2023-03-22T00:09:42.509Z,9.46
2023-03-22T00:12:11.366Z,9.48
2023-03-22T00:14:41.336Z,9.49
2023-03-22T00:17:07.987Z,9.50
2023-03-22T00:19:35.066Z,9.51
2023-03-22T00:22:03.091Z,9.53
2023-03-22T00:24:34.352Z,9.54
2023-03-22T00:27:01.675Z,9.55
2023-03-22T00:29:28.917Z,9.56
2023-03-22T00:31:56.229Z,9.56
2023-03-22T00:34:23.047Z,9.55
2023-03-22T00:36:51.310Z,9.54
2023-03-22T00:39:19.032Z,9.52
2023-03-22T00:41:47.235Z,9.48
2023-03-22T00:44:14.767Z,9.43
2023-03-22T00:46:42.098Z,9.39
2023-03-22T00:49:09.214Z,9.36
2023-03-22T00:51:35.875Z,9.31
2023-03-22T00:54:04.009Z,9.28
2023-03-22T00:56:33.330Z,9.25
2023-03-22T00:59:06.515Z,9.23
2023-03-22T01:01:38.657Z,9.21
2023-03-22T01:04:05.994Z,9.19
2023-03-22T01:06:33.602Z,9.19
2023-03-22T01:09:01.169Z,9.20
2023-03-22T01:11:28.637Z,9.22
2023-03-22T01:13:56.629Z,9.23
2023-03-22T01:16:24.752Z,9.23
2023-03-22T01:18:51.786Z,9.21
2023-03-22T01:21:18.937Z,9.20
2023-03-22T01:23:46.252Z,9.18
2023-03-22T01:26:13.504Z,9.18
2023-03-22T01:28:40.797Z,9.20
2023-03-22T01:31:07.998Z,9.21
2023-03-22T01:33:35.312Z,9.21
2023-03-22T01:36:03.618Z,9.21
2023-03-22T01:38:32.659Z,9.22
2023-03-22T01:41:01.859Z,9.23
2023-03-22T01:43:31.564Z,9.23
2023-03-22T01:45:59.592Z,9.23
2023-03-22T01:48:36.895Z,9.23
2023-03-22T01:51:08.300Z,9.24
2023-03-22T01:53:48.454Z,9.24
2023-03-22T01:56:17.020Z,9.23
2023-03-22T01:58:44.208Z,9.22
2023-03-22T02:01:11.839Z,9.23
2023-03-22T02:04:14.871Z,9.25
2023-03-22T02:06:41.840Z,9.27
2023-03-22T02:09:14.062Z,9.30
2023-03-22T02:11:45.681Z,9.32
2023-03-22T02:14:45.349Z,9.36
2023-03-22T02:18:07.264Z,9.39
2023-03-22T02:20:54.608Z,9.39
2023-03-22T02:23:54.006Z,9.37
2023-03-22T02:26:58.899Z,9.36
2023-03-22T02:29:48.703Z,9.30
2023-03-22T02:32:34.449Z,9.25
2023-03-22T02:35:20.951Z,9.19
2023-03-22T02:38:13.992Z,9.16
2023-03-22T02:40:55.685Z,9.12
2023-03-22T02:43:37.996Z,9.09
2023-03-22T02:46:07.167Z,9.07
2023-03-22T02:48:40.264Z,9.08
2023-03-22T02:51:11.408Z,9.09
2023-03-22T02:53:44.175Z,9.10
2023-03-22T02:56:14.265Z,9.14
2023-03-22T02:58:51.384Z,9.18
2023-03-22T03:01:30.156Z,9.20
2023-03-22T03:04:00.703Z,9.22
2023-03-22T03:06:30.603Z,9.25
2023-03-22T03:08:57.842Z,9.28
2023-03-22T03:11:25.991Z,9.32
2023-03-22T03:13:53.293Z,9.36
2023-03-22T03:16:21.533Z,9.38
2023-03-22T03:19:07.373Z,9.40
2023-03-22T03:21:53.067Z,9.44
2023-03-22T03:24:32.557Z,9.47
2023-03-22T03:27:25.147Z,9.49
2023-03-22T03:30:01.379Z,9.50
2023-03-22T03:32:34.934Z,9.51
2023-03-22T03:35:06.619Z,9.51
2023-03-22T03:37:41.669Z,9.52
2023-03-22T03:40:20.832Z,9.53
2023-03-22T03:42:49.954Z,9.55
2023-03-22T03:45:16.898Z,9.54
2023-03-22T03:47:46.143Z,9.55
2023-03-22T03:50:15.201Z,9.56
2023-03-22T03:52:44.528Z,9.56
2023-03-22T03:55:11.584Z,9.55
2023-03-22T03:57:39.845Z,9.54
2023-03-22T04:00:08.807Z,9.51
2023-03-22T04:02:46.086Z,9.46
2023-03-22T04:05:26.100Z,9.39
2023-03-22T04:07:52.962Z,9.31
2023-03-22T04:10:19.926Z,9.25
2023-03-22T04:12:49.233Z,9.21
2023-03-22T04:15:18.213Z,9.17
2023-03-22T04:17:48.120Z,9.17
2023-03-22T04:20:16.462Z,9.17
2023-03-22T04:22:46.228Z,9.17
2023-03-22T04:25:18.690Z,9.17
2023-03-22T04:27:55.180Z,9.16
2023-03-22T04:30:24.019Z,9.15
2023-03-22T04:33:11.149Z,9.14
2023-03-22T04:35:58.776Z,9.14
2023-03-22T04:38:33.485Z,9.13
2023-03-22T04:41:00.760Z,9.13
2023-03-22T04:43:50.365Z,9.13
2023-03-22T04:46:20.679Z,9.13
2023-03-22T04:48:52.901Z,9.13
2023-03-22T04:51:20.313Z,9.08
2023-03-22T04:53:58.880Z,9.05
2023-03-22T04:56:25.643Z,9.05
2023-03-22T04:58:52.615Z,9.06
2023-03-22T05:01:22.749Z,9.07
2023-03-22T05:03:56.065Z,9.08
2023-03-22T05:06:22.828Z,9.12
2023-03-22T05:09:00.414Z,9.18
2023-03-22T05:11:27.637Z,9.26
2023-03-22T05:14:12.028Z,9.33
2023-03-22T05:16:41.187Z,9.41
2023-03-22T05:19:13.236Z,9.47
2023-03-22T05:21:43.613Z,9.53
2023-03-22T05:24:10.585Z,9.60
2023-03-22T05:26:41.652Z,9.66
2023-03-22T05:29:10.440Z,9.73
2023-03-22T05:32:00.105Z,9.81
2023-03-22T05:34:34.730Z,9.87
2023-03-22T05:37:06.040Z,9.94
2023-03-22T05:39:55.022Z,10.01
2023-03-22T05:42:25.837Z,10.06
2023-03-22T05:44:52.560Z,10.10
2023-03-22T05:47:20.445Z,10.13
2023-03-22T05:50:00.836Z,10.17
2023-03-22T05:52:28.174Z,10.20
2023-03-22T05:55:13.091Z,10.27
2023-03-22T05:57:44.261Z,10.33
2023-03-22T06:00:15.659Z,10.38
2023-03-22T06:02:56.093Z,10.42
2023-03-22T06:05:23.652Z,10.47
2023-03-22T06:07:51.539Z,10.53
2023-03-22T06:10:20.659Z,10.60
2023-03-22T06:12:54.824Z,10.67
2023-03-22T06:15:27.407Z,10.74
2023-03-22T06:18:03.863Z,10.79
2023-03-22T06:20:36.182Z,10.86
2023-03-22T06:23:08.994Z,10.97
2023-03-22T06:25:36.136Z,11.04
2023-03-22T06:28:03.379Z,11.11
2023-03-22T06:30:30.918Z,11.19
2023-03-22T06:33:21.081Z,11.26
2023-03-22T06:35:53.055Z,11.32
2023-03-22T06:38:27.957Z,11.40
2023-03-22T06:40:55.738Z,11.48
2023-03-22T06:43:23.947Z,11.57
2023-03-22T06:45:52.155Z,11.64
2023-03-22T06:48:23.107Z,11.71
2023-03-22T06:50:59.065Z,11.77
2023-03-22T06:53:31.650Z,11.82
2023-03-22T06:55:58.501Z,11.87
2023-03-22T06:58:26.502Z,11.92
2023-03-22T07:00:55.645Z,11.96
2023-03-22T07:03:26.416Z,12.00
2023-03-22T07:06:04.261Z,12.05
2023-03-22T07:08:34.941Z,12.09
2023-03-22T07:11:07.133Z,12.11
2023-03-22T07:13:36.217Z,12.16
2023-03-22T07:16:11.501Z,12.21
2023-03-22T07:19:01.761Z,12.30
2023-03-22T07:21:29.920Z,12.40
2023-03-22T07:23:59.772Z,12.49
2023-03-22T07:26:30.039Z,12.56
2023-03-22T07:29:04.200Z,12.66
2023-03-22T07:31:36.027Z,12.75
2023-03-22T07:34:06.267Z,12.83
2023-03-22T07:36:44.118Z,12.92
2023-03-22T07:39:17.177Z,12.99
2023-03-22T07:41:47.607Z,13.04
2023-03-22T07:44:24.864Z,13.10
2023-03-22T07:47:07.598Z,13.18
2023-03-22T07:50:00.771Z,13.27
2023-03-22T07:52:39.369Z,13.36
2023-03-22T07:55:19.281Z,13.44
2023-03-22T07:57:57.210Z,13.55
2023-03-22T08:00:30.781Z,13.66
2023-03-22T08:03:27.333Z,13.76
2023-03-22T08:06:10.269Z,13.85
2023-03-22T08:08:40.573Z,13.93
2023-03-22T08:11:12.009Z,14.01
2023-03-22T08:13:45.147Z,14.10
2023-03-22T08:16:16.212Z,14.22
2023-03-22T08:18:47.065Z,14.35
2023-03-22T08:21:17.491Z,14.49
2023-03-22T08:23:49.925Z,14.65
2023-03-22T08:26:49.497Z,14.83
2023-03-22T08:29:35.918Z,15.02
2023-03-22T08:32:05.951Z,15.17
2023-03-22T08:34:38.914Z,15.32
2023-03-22T08:37:08.150Z,15.48
2023-03-22T08:39:38.780Z,15.65
2023-03-22T08:42:37.736Z,15.81
2023-03-22T08:45:10.938Z,15.91
2023-03-22T08:47:50.763Z,16.01
2023-03-22T08:50:20.355Z,16.10
2023-03-22T08:53:03.097Z,16.22
2023-03-22T08:55:40.506Z,16.38
2023-03-22T08:58:20.464Z,16.53
2023-03-22T09:01:21.270Z,16.67
2023-03-22T09:03:56.564Z,16.81
2023-03-22T09:06:28.249Z,16.94
2023-03-22T09:09:00.682Z,17.02
2023-03-22T09:11:29.442Z,17.08
2023-03-22T09:13:57.715Z,17.10
2023-03-22T09:16:29.165Z,17.09
2023-03-22T09:19:02.046Z,17.12
2023-03-22T09:21:32.374Z,17.18
2023-03-22T09:24:17.407Z,17.26
2023-03-22T09:26:51.409Z,17.33
2023-03-22T09:29:22.906Z,17.37
2023-03-22T09:31:53.190Z,17.43
2023-03-22T09:34:23.117Z,17.48
2023-03-22T09:36:52.174Z,17.53
2023-03-22T09:39:22.236Z,17.60
2023-03-22T09:41:53.930Z,17.64
2023-03-22T09:44:36.030Z,17.71
2023-03-22T09:47:04.892Z,17.78
2023-03-22T09:49:52.601Z,17.83
2023-03-22T09:52:20.257Z,17.86
2023-03-22T09:54:47.184Z,17.89
2023-03-22T09:57:23.969Z,17.94
2023-03-22T10:00:13.995Z,17.97
2023-03-22T10:02:58.978Z,18.01
2023-03-22T10:05:35.260Z,18.09
2023-03-22T10:08:24.329Z,18.25
2023-03-22T10:10:52.241Z,18.50
2023-03-22T10:13:46.613Z,18.75
2023-03-22T10:16:18.968Z,19.02
2023-03-22T10:18:49.188Z,19.25
2023-03-22T10:22:32.882Z,19.47
2023-03-22T10:29:50.727Z,20.17
2023-03-22T10:32:57.590Z,20.34
2023-03-22T10:35:25.035Z,20.55
2023-03-22T10:37:51.794Z,20.74
2023-03-22T10:40:20.612Z,20.97
2023-03-22T10:42:52.629Z,21.17
2023-03-22T10:45:19.593Z,21.32
2023-03-22T10:48:05.033Z,21.46
2023-03-22T10:50:32.632Z,21.65
2023-03-22T10:53:23.048Z,21.85
2023-03-22T10:55:50.375Z,21.97
2023-03-22T10:58:21.337Z,22.07
2023-03-22T11:00:50.042Z,22.15
2023-03-22T11:03:36.157Z,22.20
2023-03-22T11:06:17.147Z,22.29
2023-03-22T11:08:49.000Z,22.35
2023-03-22T11:11:38.328Z,22.41
2023-03-22T11:14:08.014Z,22.45
2023-03-22T11:17:06.068Z,22.51
2023-03-22T11:19:34.024Z,22.64
2023-03-22T11:22:04.572Z,22.71
2023-03-22T11:24:32.533Z,22.81
2023-03-22T11:27:05.216Z,22.96
2023-03-22T11:29:49.123Z,23.09
2023-03-22T11:32:28.484Z,23.17
2023-03-22T11:35:19.752Z,23.23
2023-03-22T11:37:51.317Z,23.31
2023-03-22T11:40:21.924Z,23.32
2023-03-22T11:42:51.691Z,23.32
2023-03-22T11:45:27.515Z,23.16
2023-03-22T11:47:54.577Z,22.84
2023-03-22T11:50:29.650Z,22.49
2023-03-22T11:52:56.602Z,22.12
2023-03-22T11:55:24.070Z,21.77
2023-03-22T11:57:51.221Z,21.44
2023-03-22T12:00:20.871Z,21.16
2023-03-22T12:02:55.434Z,20.95
2023-03-22T12:05:28.102Z,20.74
2023-03-22T12:08:18.633Z,20.54
2023-03-22T12:10:48.455Z,20.38
2023-03-22T12:13:23.089Z,20.19
2023-03-22T12:15:56.078Z,20.00
2023-03-22T12:18:41.143Z,19.87
2023-03-22T12:21:09.439Z,19.76
2023-03-22T12:23:37.441Z,19.61
2023-03-22T12:26:11.444Z,19.52
2023-03-22T12:29:02.505Z,19.48
2023-03-22T12:31:31.623Z,19.51
2023-03-22T12:34:02.474Z,19.53
2023-03-22T12:36:42.445Z,19.51
2023-03-22T12:39:26.388Z,19.51
2023-03-22T12:41:53.592Z,19.45
2023-03-22T12:44:28.814Z,19.40
2023-03-22T12:46:56.883Z,19.38
2023-03-22T12:49:30.557Z,19.40
2023-03-22T12:52:10.407Z,19.48
2023-03-22T12:54:37.242Z,19.55
2023-03-22T12:57:04.108Z,19.57
2023-03-22T12:59:32.570Z,19.65
2023-03-22T13:02:17.805Z,19.70
2023-03-22T13:04:51.794Z,19.80
2023-03-22T13:07:30.566Z,20.07
2023-03-22T13:10:00.428Z,20.54
2023-03-22T13:12:41.659Z,21.08
2023-03-22T13:15:56.337Z,21.47
2023-03-22T13:18:35.161Z,21.82
2023-03-22T13:21:31.184Z,22.06
2023-03-22T13:24:00.810Z,22.31
2023-03-22T13:26:34.610Z,22.57
2023-03-22T13:29:01.562Z,22.86
2023-03-22T13:31:42.929Z,22.98
2023-03-22T13:34:15.538Z,22.92
2023-03-22T13:36:49.145Z,22.77
2023-03-22T13:39:15.983Z,22.49
2023-03-22T13:41:45.505Z,22.28
2023-03-22T13:44:25.790Z,22.23
2023-03-22T13:46:52.800Z,22.25
2023-03-22T13:49:53.586Z,22.25
2023-03-22T13:52:35.186Z,22.28
2023-03-22T13:55:02.646Z,22.35
2023-03-22T14:01:49.076Z,22.04
2023-03-22T14:04:22.006Z,21.77
2023-03-22T14:06:54.516Z,21.53
2023-03-22T14:09:31.156Z,21.29
2023-03-22T14:12:49.892Z,21.06
2023-03-22T14:15:30.767Z,20.87
2023-03-22T14:18:07.125Z,20.73
2023-03-22T14:20:35.625Z,20.60
